Time;durP1;ratioP1;P1;durP2;ratioP2;P2;SDS_P1;SDS_P2;PMS_P1;PMS_P2;Temp;Humidity;BMP_temperature;BMP_pressure;BME280_temperature;BME280_humidity;BME280_pressure;Samples;Min_cycle;Max_cycle;Signal;HPM_P1;HPM_P2
2021/06/18 00:00:29;;;;;;;5.72;3.10;;;26.20;90.90;;;;;;4126323;28;20125;-84
2021/06/18 00:02:29;;;;;;;4.10;2.75;;;26.20;90.90;;;;;;4142394;28;20786;-84
2021/06/18 00:04:42;;;;;;;3.10;2.45;;;26.20;90.90;;;;;;4142879;28;20124;-85
2021/06/18 00:06:43;;;;;;;4.85;2.80;;;26.20;90.90;;;;;;4141762;28;20046;-84
2021/06/18 00:09:01;;;;;;;5.90;2.97;;;26.10;91.00;;;;;;4142425;28;20118;-84
2021/06/18 00:11:02;;;;;;;4.72;2.83;;;26.10;91.00;;;;;;4126444;28;20030;-84
2021/06/18 00:13:02;;;;;;;4.25;3.00;;;26.10;91.00;;;;;;4141012;28;20052;-84
2021/06/18 00:15:06;;;;;;;6.35;3.10;;;26.10;91.20;;;;;;4127097;28;77529;-84
2021/06/18 00:17:07;;;;;;;5.65;3.55;;;26.10;91.20;;;;;;4140451;28;20037;-84
2021/06/18 00:19:18;;;;;;;7.28;3.67;;;26.10;91.20;;;;;;4143059;28;20061;-84
2021/06/18 00:21:18;;;;;;;7.68;3.70;;;26.00;91.30;;;;;;4126461;28;20037;-84
2021/06/18 00:23:20;;;;;;;5.97;3.42;;;25.90;91.50;;;;;;4126563;28;20639;-84
2021/06/18 00:25:20;;;;;;;8.25;3.85;;;25.80;91.50;;;;;;4127424;28;20034;-84
2021/06/18 00:27:21;;;;;;;5.22;3.45;;;25.80;91.80;;;;;;4127053;28;20337;-84
2021/06/18 00:29:22;;;;;;;7.68;4.53;;;25.70;91.90;;;;;;4126409;28;20031;-85
2021/06/18 00:31:22;;;;;;;8.38;3.92;;;25.60;92.10;;;;;;4126884;28;20039;-85
2021/06/18 00:33:23;;;;;;;4.32;3.17;;;25.60;92.20;;;;;;4140286;28;20064;-85
2021/06/18 00:35:36;;;;;;;4.90;3.03;;;25.60;92.30;;;;;;4126695;28;20069;-84
2021/06/18 00:37:36;;;;;;;;;;;25.50;92.40;;;;;;4123351;28;20027;-84
2021/06/18 00:39:37;;;;;;;4.85;3.10;;;25.50;92.40;;;;;;4140891;28;19922;-85
2021/06/18 00:41:37;;;;;;;6.93;3.72;;;25.50;92.40;;;;;;4127069;28;20031;-84
2021/06/18 00:43:38;;;;;;;6.28;3.22;;;25.50;92.40;;;;;;4126818;28;20038;-84
2021/06/18 00:45:39;;;;;;;6.03;3.63;;;25.50;92.40;;;;;;4143217;28;20036;-84
2021/06/18 00:47:53;;;;;;;4.53;3.20;;;25.50;92.50;;;;;;4126790;28;20121;-84
2021/06/18 00:49:55;;;;;;;5.18;3.25;;;25.50;92.60;;;;;;4126710;28;20504;-85
2021/06/18 00:51:57;;;;;;;4.90;3.70;;;25.50;92.60;;;;;;4143171;28;20168;-84
2021/06/18 00:53:57;;;;;;;5.05;3.65;;;25.50;92.60;;;;;;4126467;28;20042;-84
2021/06/18 00:55:58;;;;;;;5.03;3.30;;;25.50;92.70;;;;;;4127098;28;20030;-84
2021/06/18 00:57:59;;;;;;;8.50;3.28;;;25.60;92.70;;;;;;4143218;28;20409;-85
2021/06/18 00:59:59;;;;;;;5.88;3.60;;;25.50;92.80;;;;;;4144123;28;20073;-85
2021/06/18 01:02:05;;;;;;;5.60;3.95;;;25.50;92.90;;;;;;4143747;28;20116;-84
2021/06/18 01:04:06;;;;;;;5.53;3.30;;;25.50;93.00;;;;;;4123217;28;20027;-84
2021/06/18 01:06:09;;;;;;;5.85;3.20;;;25.40;93.10;;;;;;4144724;28;20068;-84
2021/06/18 01:08:48;;;;;;;5.70;3.67;;;25.40;93.20;;;;;;4126820;28;20041;-85
2021/06/18 01:11:22;;;;;;;5.72;4.00;;;25.40;93.30;;;;;;4141213;28;20415;-84
2021/06/18 01:13:32;;;;;;;7.25;3.90;;;25.30;93.40;;;;;;4141609;28;20038;-84
2021/06/18 01:15:47;;;;;;;4.50;3.47;;;25.30;93.50;;;;;;4126723;28;20086;-84
2021/06/18 01:18:03;;;;;;;9.57;3.53;;;25.30;93.70;;;;;;4126808;28;20109;-84
2021/06/18 01:20:44;;;;;;;6.50;3.80;;;25.20;93.90;;;;;;4126495;28;20861;-84
2021/06/18 01:22:51;;;;;;;4.80;3.28;;;25.20;94.00;;;;;;4137763;28;20026;-84
2021/06/18 01:24:57;;;;;;;4.63;3.45;;;25.10;94.20;;;;;;4129737;28;20054;-85
2021/06/18 01:27:10;;;;;;;6.10;2.90;;;25.10;94.30;;;;;;4129802;28;20035;-85
2021/06/18 01:29:11;;;;;;;3.55;3.10;;;25.10;94.40;;;;;;4147303;28;20109;-84
2021/06/18 01:31:17;;;;;;;4.95;3.30;;;25.10;94.50;;;;;;4129035;28;20035;-84
2021/06/18 01:33:22;;;;;;;5.82;3.50;;;25.00;94.70;;;;;;4145243;28;20100;-84
2021/06/18 01:35:25;;;;;;;4.93;3.50;;;25.00;94.80;;;;;;4145712;28;20034;-84
2021/06/18 01:37:30;;;;;;;4.32;2.90;;;25.00;94.90;;;;;;4145131;28;20510;-84
2021/06/18 01:39:32;;;;;;;3.95;3.25;;;25.00;95.00;;;;;;4145765;28;20042;-84
2021/06/18 01:41:33;;;;;;;4.45;3.22;;;25.00;95.10;;;;;;4129040;28;20451;-84
2021/06/18 01:43:35;;;;;;;5.88;3.60;;;24.90;95.20;;;;;;4145296;28;20044;-84
2021/06/18 01:45:39;;;;;;;4.20;3.38;;;24.90;95.40;;;;;;4145535;28;20088;-85
2021/06/18 01:47:43;;;;;;;5.90;3.20;;;24.90;95.50;;;;;;4129393;28;20041;-84
2021/06/18 01:49:45;;;;;;;6.72;4.60;;;24.90;95.70;;;;;;4129122;28;20431;-84
2021/06/18 01:51:49;;;;;;;6.78;3.30;;;24.80;95.80;;;;;;4145038;28;20030;-85
2021/06/18 01:54:08;;;;;;;8.05;3.83;;;24.80;96.00;;;;;;4144365;28;20037;-84
2021/06/18 01:56:17;;;;;;;8.50;3.75;;;24.80;96.10;;;;;;4129232;28;20169;-84
2021/06/18 01:58:20;;;;;;;7.22;3.20;;;24.70;96.30;;;;;;4146575;28;20061;-84
2021/06/18 02:00:22;;;;;;;5.13;3.40;;;24.70;96.40;;;;;;4146673;28;20041;-84
2021/06/18 02:02:25;;;;;;;5.63;3.38;;;24.70;96.60;;;;;;4144975;28;20473;-84
2021/06/18 02:04:27;;;;;;;4.70;3.05;;;24.70;96.80;;;;;;4146570;28;20540;-84
2021/06/18 02:06:28;;;;;;;5.47;3.30;;;24.70;97.00;;;;;;4145039;28;20042;-84
2021/06/18 02:08:43;;;;;;;5.50;2.97;;;24.70;97.10;;;;;;4145135;28;20041;-84
2021/06/18 02:10:46;;;;;;;5.45;3.28;;;24.70;97.20;;;;;;4143995;28;20113;-84
2021/06/18 02:12:48;;;;;;;4.32;3.15;;;24.70;97.30;;;;;;4144236;28;20380;-84
2021/06/18 02:14:50;;;;;;;5.55;3.80;;;24.70;97.30;;;;;;4144660;28;20030;-84
2021/06/18 02:16:57;;;;;;;3.65;2.92;;;24.70;97.40;;;;;;4145314;28;20069;-84
2021/06/18 02:18:58;;;;;;;4.68;3.38;;;24.60;97.50;;;;;;4145277;28;20026;-84
2021/06/18 02:21:00;;;;;;;8.98;3.50;;;24.60;97.60;;;;;;4145028;28;20077;-85
2021/06/18 02:23:01;;;;;;;6.65;3.78;;;24.60;98.00;;;;;;4128422;28;20077;-84
2021/06/18 02:25:07;;;;;;;8.18;3.70;;;24.50;97.70;;;;;;4146891;28;20026;-84
2021/06/18 02:27:12;;;;;;;4.25;3.08;;;24.50;97.80;;;;;;4139233;28;20030;-84
2021/06/18 02:29:14;;;;;;;4.68;3.75;;;24.50;97.90;;;;;;4144462;28;20103;-84
2021/06/18 02:31:15;;;;;;;6.00;3.60;;;24.50;98.00;;;;;;4143944;28;20046;-84
2021/06/18 02:33:29;;;;;;;6.20;3.60;;;24.50;98.10;;;;;;4143135;28;20045;-84
2021/06/18 02:35:30;;;;;;;3.83;3.25;;;24.50;98.30;;;;;;4122665;28;20031;-84
2021/06/18 02:37:31;;;;;;;6.55;3.42;;;24.50;98.30;;;;;;4127883;28;20038;-84
2021/06/18 02:39:32;;;;;;;4.78;3.10;;;24.40;98.40;;;;;;4144644;28;20068;-84
2021/06/18 02:41:33;;;;;;;11.25;3.35;;;24.40;98.50;;;;;;4143921;28;20109;-84
2021/06/18 02:43:34;;;;;;;5.47;3.53;;;24.40;98.60;;;;;;4128557;28;20562;-84
2021/06/18 02:45:36;;;;;;;5.75;3.35;;;24.40;98.70;;;;;;4145998;28;20034;-84
2021/06/18 02:47:45;;;;;;;7.17;3.57;;;24.40;98.70;;;;;;4144841;28;20034;-84
2021/06/18 02:50:28;;;;;;;4.75;3.03;;;24.40;98.80;;;;;;4139790;28;20033;-84
2021/06/18 02:52:42;;;;;;;4.47;3.03;;;24.40;98.90;;;;;;4142299;28;20478;-84
2021/06/18 02:54:53;;;;;;;4.70;3.10;;;24.40;99.00;;;;;;4131180;28;20041;-83
2021/06/18 02:57:26;;;;;;;6.05;3.00;;;24.40;99.10;;;;;;4124857;28;20042;-84
2021/06/18 03:00:08;;;;;;;5.55;3.60;;;24.40;99.10;;;;;;4112630;28;20031;-85
2021/06/18 03:02:19;;;;;;;4.47;2.85;;;24.40;99.20;;;;;;4124205;28;20570;-84
2021/06/18 03:04:26;;;;;;;6.82;3.78;;;24.50;99.10;;;;;;4144171;28;20113;-84
2021/06/18 03:06:31;;;;;;;4.53;3.10;;;24.50;99.00;;;;;;4139980;28;20045;-84
2021/06/18 03:08:57;;;;;;;7.32;4.10;;;24.50;99.10;;;;;;4128512;28;20157;-84
2021/06/18 03:11:15;;;;;;;4.65;2.83;;;24.50;99.30;;;;;;4141667;28;20022;-84
2021/06/18 03:13:36;;;;;;;4.97;3.30;;;24.50;99.20;;;;;;4139131;28;20501;-84
2021/06/18 03:15:42;;;;;;;5.70;3.10;;;24.60;99.10;;;;;;4127242;28;20034;-84
2021/06/18 03:17:50;;;;;;;8.13;3.20;;;24.50;99.20;;;;;;4126673;28;20038;-84
2021/06/18 03:19:59;;;;;;;7.22;3.83;;;24.60;99.10;;;;;;4143024;28;20421;-84
2021/06/18 03:22:20;;;;;;;7.05;3.33;;;24.60;99.30;;;;;;4127765;28;20369;-84
2021/06/18 03:24:25;;;;;;;3.95;2.70;;;24.60;99.60;;;;;;4138786;28;20486;-84
2021/06/18 03:26:32;;;;;;;5.43;3.40;;;24.50;99.40;;;;;;4143899;28;20088;-85
2021/06/18 03:28:47;;;;;;;4.53;2.88;;;24.60;99.40;;;;;;4127653;28;20027;-85
2021/06/18 03:30:51;;;;;;;3.50;3.10;;;24.60;99.50;;;;;;4144716;28;20382;-85
2021/06/18 03:32:52;;;;;;;5.10;3.13;;;24.60;99.40;;;;;;4143840;28;20506;-85
2021/06/18 03:34:55;;;;;;;7.47;3.17;;;24.60;99.30;;;;;;4127823;28;20038;-84
2021/06/18 03:36:58;;;;;;;4.60;3.13;;;24.60;99.20;;;;;;4127170;28;20046;-84
2021/06/18 03:39:21;;;;;;;5.97;3.40;;;24.70;99.20;;;;;;4143349;28;20029;-84
2021/06/18 03:41:41;;;;;;;7.93;3.83;;;24.70;99.00;;;;;;4139749;28;20030;-84
2021/06/18 03:43:43;;;;;;;4.72;3.38;;;24.70;99.10;;;;;;4126410;28;20643;-85
2021/06/18 03:45:48;;;;;;;6.07;3.05;;;24.70;99.20;;;;;;4143747;28;20080;-84
2021/06/18 03:47:50;;;;;;;4.15;3.17;;;24.70;99.20;;;;;;4143154;28;20061;-84
2021/06/18 03:49:51;;;;;;;7.32;3.67;;;24.70;99.20;;;;;;4143513;28;20037;-84
2021/06/18 03:51:54;;;;;;;5.45;3.20;;;24.70;99.60;;;;;;4127100;28;20109;-84
2021/06/18 03:53:56;;;;;;;5.25;3.30;;;24.70;99.40;;;;;;4143297;28;20038;-84
2021/06/18 03:55:57;;;;;;;5.78;3.50;;;24.70;99.80;;;;;;4127062;28;21311;-84
2021/06/18 03:58:05;;;;;;;6.45;2.97;;;24.70;99.90;;;;;;4143259;28;20037;-84
2021/06/18 04:00:21;;;;;;;6.55;3.75;;;24.70;99.70;;;;;;4139225;28;20042;-84
2021/06/18 04:02:31;;;;;;;5.15;3.47;;;24.70;99.90;;;;;;4143184;28;20600;-85
2021/06/18 04:04:33;;;;;;;5.68;3.30;;;24.70;99.70;;;;;;4124256;28;20035;-84
2021/06/18 04:06:34;;;;;;;4.03;3.30;;;24.80;99.80;;;;;;4143395;28;20034;-84
2021/06/18 04:08:44;;;;;;;7.35;3.60;;;24.80;99.90;;;;;;4143180;28;20037;-84
2021/06/18 04:10:45;;;;;;;4.40;3.38;;;24.80;99.80;;;;;;4142308;28;20034;-84
2021/06/18 04:12:49;;;;;;;4.57;3.42;;;24.80;99.80;;;;;;4125125;28;20045;-84
2021/06/18 04:14:52;;;;;;;6.07;3.63;;;24.80;99.90;;;;;;4142809;28;20112;-84
2021/06/18 04:16:53;;;;;;;;;;;24.80;99.90;;;;;;4127424;28;20038;-84
2021/06/18 04:18:54;;;;;;;5.28;3.40;;;24.80;99.90;;;;;;4143301;28;20627;-84
2021/06/18 04:20:55;;;;;;;4.93;3.27;;;24.80;99.90;;;;;;4143662;28;20085;-84
2021/06/18 04:22:56;;;;;;;5.30;3.30;;;24.90;99.90;;;;;;4141061;28;20038;-84
2021/06/18 04:25:06;;;;;;;5.35;4.00;;;24.90;99.90;;;;;;4143289;28;20030;-84
2021/06/18 04:27:07;;;;;;;5.28;4.03;;;24.90;99.90;;;;;;4143123;28;20140;-84
2021/06/18 04:29:08;;;;;;;5.00;3.40;;;24.90;99.90;;;;;;4143250;28;20026;-84
2021/06/18 04:31:08;;;;;;;6.60;3.70;;;24.90;99.90;;;;;;4127437;28;20050;-84
2021/06/18 04:33:09;;;;;;;5.90;3.80;;;25.00;99.90;;;;;;4141055;28;20030;-84
2021/06/18 04:35:11;;;;;;;5.78;3.85;;;25.00;99.90;;;;;;4127086;28;20034;-85
2021/06/18 04:37:12;;;;;;;5.72;3.65;;;25.00;99.90;;;;;;4142816;28;20446;-84
2021/06/18 04:39:23;;;;;;;7.60;3.67;;;25.00;99.90;;;;;;4126980;28;20038;-84
2021/06/18 04:41:48;;;;;;;8.27;3.60;;;25.00;99.90;;;;;;4142697;28;20037;-84
2021/06/18 04:43:49;;;;;;;6.75;4.25;;;25.00;99.90;;;;;;4142348;28;20026;-84
2021/06/18 04:45:49;;;;;;;7.53;3.72;;;25.10;99.90;;;;;;4140182;28;20699;-80
2021/06/18 04:47:50;;;;;;;6.13;3.97;;;25.00;99.90;;;;;;4142918;28;20529;-80
2021/06/18 04:49:51;;;;;;;5.85;3.75;;;25.10;99.90;;;;;;4144043;28;20019;-79
2021/06/18 04:51:51;;;;;;;5.47;4.05;;;25.10;99.90;;;;;;4145248;28;20037;-80
2021/06/18 04:53:53;;;;;;;6.65;4.20;;;25.20;99.90;;;;;;4142840;28;20525;-82
2021/06/18 04:55:54;;;;;;;8.27;4.90;;;25.20;99.90;;;;;;4140622;28;20840;-81
2021/06/18 04:58:00;;;;;;;7.60;4.80;;;25.20;99.90;;;;;;4128515;28;20104;-83
2021/06/18 05:00:04;;;;;;;13.30;6.55;;;25.10;99.90;;;;;;4136883;28;20034;-80
2021/06/18 05:02:05;;;;;;;13.05;5.95;;;24.90;99.90;;;;;;4149804;28;20164;-81
2021/06/18 05:04:13;;;;;;;8.65;4.95;;;24.80;99.90;;;;;;4152032;28;20125;-81
2021/06/18 05:06:21;;;;;;;9.30;5.35;;;24.60;99.90;;;;;;4150409;28;20036;-79
2021/06/18 05:08:22;;;;;;;11.98;6.20;;;24.50;99.90;;;;;;4133740;28;20096;-80
2021/06/18 05:10:25;;;;;;;11.40;5.82;;;24.40;99.90;;;;;;4153756;28;20565;-81
2021/06/18 05:12:26;;;;;;;12.25;5.93;;;24.30;99.90;;;;;;4150653;28;20049;-80
2021/06/18 05:14:27;;;;;;;11.98;5.85;;;24.20;99.90;;;;;;4152344;28;20102;-81
2021/06/18 05:16:28;;;;;;;8.95;5.63;;;24.20;99.90;;;;;;4132996;28;20042;-80
2021/06/18 05:18:28;;;;;;;11.65;6.93;;;24.10;99.90;;;;;;4148975;28;20038;-80
2021/06/18 05:20:29;;;;;;;11.07;6.90;;;24.10;99.90;;;;;;4149641;28;20187;-80
2021/06/18 05:22:32;;;;;;;8.13;5.38;;;24.10;99.90;;;;;;4137367;28;20184;-80
2021/06/18 05:24:41;;;;;;;12.70;6.85;;;24.10;99.90;;;;;;4145489;28;20037;-80
2021/06/18 05:26:42;;;;;;;8.35;6.30;;;24.10;99.90;;;;;;4152333;28;20705;-80
2021/06/18 05:28:44;;;;;;;9.82;7.28;;;24.20;99.90;;;;;;4152181;28;20041;-79
2021/06/18 05:30:51;;;;;;;10.02;5.80;;;24.20;99.90;;;;;;4134057;28;20030;-80
2021/06/18 05:32:52;;;;;;;11.68;7.18;;;24.10;99.90;;;;;;4147466;28;20050;-80
2021/06/18 05:34:56;;;;;;;12.40;6.38;;;24.10;99.90;;;;;;4127230;28;20050;-80
2021/06/18 05:36:58;;;;;;;10.32;5.85;;;24.10;99.90;;;;;;4146647;28;20606;-80
2021/06/18 05:39:08;;;;;;;8.90;6.47;;;24.20;99.90;;;;;;4150178;28;20030;-80
2021/06/18 05:41:08;;;;;;;15.48;6.90;;;24.20;99.90;;;;;;4153659;28;20030;-80
2021/06/18 05:43:15;;;;;;;14.85;7.20;;;24.30;99.90;;;;;;4132523;28;20042;-80
2021/06/18 05:45:15;;;;;;;9.40;5.70;;;24.40;99.90;;;;;;4146546;28;20038;-79
2021/06/18 05:47:16;;;;;;;9.20;5.72;;;24.50;99.90;;;;;;4133398;28;20049;-80
2021/06/18 05:49:17;;;;;;;11.60;6.75;;;24.70;99.90;;;;;;4133129;28;20050;-80
2021/06/18 05:51:18;;;;;;;7.33;6.00;;;24.90;99.90;;;;;;4152447;28;20045;-80
2021/06/18 05:53:23;;;;;;;8.55;5.20;;;25.10;99.90;;;;;;4151753;28;20152;-80
2021/06/18 05:55:24;;;;;;;11.10;6.00;;;25.30;99.90;;;;;;4152446;28;20053;-81
2021/06/18 05:57:25;;;;;;;8.25;6.57;;;25.60;99.90;;;;;;4131846;28;20046;-80
2021/06/18 05:59:32;;;;;;;12.57;5.97;;;25.80;99.90;;;;;;4149243;28;20367;-80
2021/06/18 06:01:39;;;;;;;10.70;6.80;;;26.00;99.90;;;;;;4146501;28;20124;-80
2021/06/18 06:03:42;;;;;;;11.32;6.90;;;26.20;99.90;;;;;;4146463;28;20033;-80
2021/06/18 06:05:43;;;;;;;9.45;4.95;;;26.20;99.90;;;;;;4148945;28;20431;-79
2021/06/18 06:07:46;;;;;;;7.63;5.95;;;26.30;99.90;;;;;;4134126;28;20089;-80
2021/06/18 06:09:46;;;;;;;7.28;5.35;;;26.40;99.90;;;;;;4146912;28;20041;-79
2021/06/18 06:11:47;;;;;;;8.95;5.18;;;26.50;99.90;;;;;;4147200;28;20076;-80
2021/06/18 06:13:57;;;;;;;6.90;5.30;;;26.60;99.90;;;;;;4149767;28;20030;-79
2021/06/18 06:15:58;;;;;;;8.63;5.55;;;26.80;99.90;;;;;;4130587;28;20153;-79
2021/06/18 06:17:59;;;;;;;6.30;4.60;;;27.10;99.90;;;;;;4147189;28;20065;-80
2021/06/18 06:19:59;;;;;;;10.73;7.45;;;27.30;99.90;;;;;;4143541;28;20593;-80
2021/06/18 06:22:00;;;;;;;8.25;4.78;;;27.40;99.90;;;;;;4147373;28;20038;-80
2021/06/18 06:24:01;;;;;;;8.73;4.57;;;27.40;99.90;;;;;;4147554;28;20056;-80
2021/06/18 06:26:02;;;;;;;7.05;4.57;;;27.50;99.90;;;;;;4143758;28;20053;-80
2021/06/18 06:28:04;;;;;;;7.35;5.47;;;27.60;99.80;;;;;;4142500;28;20033;-79
2021/06/18 06:30:06;;;;;;;7.10;5.18;;;27.70;99.40;;;;;;4147338;28;20034;-80
2021/06/18 06:32:08;;;;;;;8.02;4.68;;;27.80;98.90;;;;;;4129016;28;20038;-80
2021/06/18 06:34:14;;;;;;;7.07;5.03;;;27.90;98.80;;;;;;4148493;28;20534;-79
2021/06/18 06:36:16;;;;;;;9.43;5.97;;;27.90;98.70;;;;;;4142327;28;20624;-79
2021/06/18 06:38:19;;;;;;;7.40;4.32;;;28.00;98.40;;;;;;4148333;28;20457;-80
2021/06/18 06:40:23;;;;;;;7.90;5.50;;;28.00;98.10;;;;;;4148134;28;20095;-80
2021/06/18 06:42:23;;;;;;;10.15;5.30;;;28.10;98.10;;;;;;4146991;28;20046;-79
2021/06/18 06:44:25;;;;;;;9.45;5.72;;;28.10;98.30;;;;;;4143570;28;20471;-79
2021/06/18 06:46:26;;;;;;;5.97;4.70;;;28.20;97.80;;;;;;4145840;28;20198;-79
2021/06/18 06:48:27;;;;;;;8.63;5.88;;;28.20;97.80;;;;;;4127123;28;20054;-80
2021/06/18 06:50:27;;;;;;;12.10;6.30;;;28.10;97.40;;;;;;4150603;28;20037;-80
2021/06/18 06:52:28;;;;;;;7.68;5.07;;;28.10;97.40;;;;;;4128856;28;20918;-80
2021/06/18 06:54:29;;;;;;;10.10;5.30;;;28.10;97.80;;;;;;4145531;28;20113;-80
2021/06/18 06:56:31;;;;;;;9.65;5.93;;;28.10;97.60;;;;;;4145798;28;20076;-80
2021/06/18 06:58:33;;;;;;;8.68;5.75;;;28.20;96.70;;;;;;4149822;28;20040;-79
2021/06/18 07:00:35;;;;;;;7.70;5.53;;;28.20;97.00;;;;;;4143313;28;20040;-79
2021/06/18 07:02:35;;;;;;;7.53;5.57;;;28.20;97.00;;;;;;4143357;28;20531;-80
2021/06/18 07:04:36;;;;;;;8.27;5.45;;;28.20;97.20;;;;;;4145365;28;20037;-80
2021/06/18 07:06:38;;;;;;;8.68;4.95;;;28.20;97.00;;;;;;4149952;28;20041;-79
2021/06/18 07:08:39;;;;;;;11.70;6.68;;;28.20;97.00;;;;;;4148459;28;20036;-80
2021/06/18 07:10:42;;;;;;;8.70;5.03;;;28.20;96.70;;;;;;4150835;28;20052;-79
2021/06/18 07:12:43;;;;;;;12.75;6.15;;;28.20;97.10;;;;;;4131164;28;20122;-79
2021/06/18 07:14:44;;;;;;;8.60;5.45;;;28.10;96.60;;;;;;4128671;28;20045;-79
2021/06/18 07:16:46;;;;;;;10.98;6.90;;;28.10;97.30;;;;;;4129661;28;20030;-80
2021/06/18 07:18:46;;;;;;;11.00;7.13;;;28.00;97.80;;;;;;4143705;28;20561;-80
2021/06/18 07:20:47;;;;;;;7.80;5.00;;;27.90;97.10;;;;;;4149376;28;20038;-79
2021/06/18 07:22:49;;;;;;;7.63;5.78;;;28.00;97.60;;;;;;4145629;28;20045;-80
2021/06/18 07:24:50;;;;;;;9.33;6.03;;;28.00;97.70;;;;;;4143843;28;20038;-79
2021/06/18 07:26:50;;;;;;;10.55;6.55;;;28.00;97.20;;;;;;4143721;28;20800;-79
2021/06/18 07:28:52;;;;;;;9.45;6.82;;;27.90;97.00;;;;;;4129149;28;20038;-79
2021/06/18 07:30:53;;;;;;;15.13;8.00;;;27.90;97.70;;;;;;4145966;28;20041;-79
2021/06/18 07:32:53;;;;;;;13.85;6.93;;;27.90;97.10;;;;;;4150626;28;20038;-80
2021/06/18 07:34:54;;;;;;;10.57;6.65;;;27.80;97.70;;;;;;4145653;28;20108;-79
2021/06/18 07:36:57;;;;;;;10.60;8.23;;;27.90;97.40;;;;;;4147803;28;20264;-79
2021/06/18 07:38:57;;;;;;;12.25;7.85;;;27.80;96.80;;;;;;4133088;28;20044;-80
2021/06/18 07:41:02;;;;;;;11.27;7.65;;;27.70;97.10;;;;;;4152155;28;20041;-80
2021/06/18 07:43:04;;;;;;;10.60;8.07;;;27.70;98.10;;;;;;4131469;28;20034;-80
2021/06/18 07:45:05;;;;;;;11.73;8.80;;;27.70;97.50;;;;;;4143124;28;20045;-79
2021/06/18 07:47:07;;;;;;;9.50;5.93;;;27.70;97.40;;;;;;4146556;28;20033;-80
2021/06/18 07:49:09;;;;;;;8.02;6.10;;;27.60;97.90;;;;;;4144808;28;20038;-79
2021/06/18 07:51:12;;;;;;;10.30;6.27;;;27.70;97.80;;;;;;4146502;28;20038;-80
2021/06/18 07:53:14;;;;;;;8.20;6.05;;;27.70;97.80;;;;;;4145731;28;20113;-78
2021/06/18 07:55:19;;;;;;;8.88;6.28;;;27.80;97.90;;;;;;4143133;28;20379;-79
2021/06/18 07:57:21;;;;;;;9.80;5.88;;;27.70;98.70;;;;;;4148474;28;20030;-79
2021/06/18 07:59:22;;;;;;;12.80;7.13;;;27.80;98.40;;;;;;4144942;28;20156;-79
2021/06/18 08:01:22;;;;;;;11.18;6.57;;;27.80;97.80;;;;;;4145818;28;20653;-78
2021/06/18 08:03:23;;;;;;;9.02;6.82;;;27.80;98.00;;;;;;4129259;28;20038;-79
2021/06/18 08:05:24;;;;;;;9.82;6.38;;;27.80;98.00;;;;;;4144982;28;20526;-79
2021/06/18 08:07:30;;;;;;;9.95;6.93;;;27.80;98.10;;;;;;4143938;28;20045;-79
2021/06/18 08:09:31;;;;;;;10.05;6.68;;;27.70;97.90;;;;;;4147438;28;20044;-79
2021/06/18 08:11:32;;;;;;;8.27;6.50;;;27.80;97.90;;;;;;4127533;28;20045;-79
2021/06/18 08:13:32;;;;;;;12.63;6.20;;;27.70;98.20;;;;;;4145457;28;20060;-79
2021/06/18 08:15:33;;;;;;;8.18;5.20;;;27.70;98.40;;;;;;4145747;28;20038;-79
2021/06/18 08:17:34;;;;;;;8.55;6.55;;;27.70;98.30;;;;;;4123821;28;20030;-79
2021/06/18 08:19:35;;;;;;;11.60;6.75;;;27.70;98.40;;;;;;4128510;28;20060;-79
2021/06/18 08:21:36;;;;;;;9.55;6.47;;;27.70;98.30;;;;;;4146530;28;20088;-78
2021/06/18 08:23:37;;;;;;;8.32;6.07;;;27.60;98.10;;;;;;4146562;28;20070;-79
2021/06/18 08:25:38;;;;;;;6.93;5.45;;;27.60;98.40;;;;;;4148291;28;20046;-79
2021/06/18 08:27:39;;;;;;;7.93;5.60;;;27.60;98.20;;;;;;4147835;28;20064;-79
2021/06/18 08:29:40;;;;;;;14.60;8.32;;;27.60;98.20;;;;;;4146178;28;20037;-78
2021/06/18 08:31:42;;;;;;;12.63;7.25;;;27.60;98.30;;;;;;4142795;28;20038;-78
2021/06/18 08:33:43;;;;;;;10.77;6.57;;;27.50;98.50;;;;;;4131038;28;20131;-79
2021/06/18 08:35:43;;;;;;;10.18;7.35;;;27.50;98.70;;;;;;4130241;28;20062;-79
2021/06/18 08:37:44;;;;;;;10.73;7.43;;;27.40;98.70;;;;;;4149861;28;20109;-78
2021/06/18 08:39:45;;;;;;;9.32;6.63;;;27.40;99.00;;;;;;4151532;28;20033;-79
2021/06/18 08:41:46;;;;;;;9.18;7.57;;;27.40;99.30;;;;;;4135018;28;20034;-79
2021/06/18 08:43:49;;;;;;;12.18;7.32;;;27.30;99.60;;;;;;4150150;28;20103;-79
2021/06/18 08:45:49;;;;;;;10.98;6.82;;;27.30;99.80;;;;;;4147418;28;20045;-79
2021/06/18 08:47:50;;;;;;;9.27;6.82;;;27.20;99.90;;;;;;4153035;28;20052;-79
2021/06/18 08:49:51;;;;;;;11.57;7.68;;;27.20;99.90;;;;;;4131354;28;20035;-79
2021/06/18 08:51:53;;;;;;;8.07;6.18;;;27.20;99.90;;;;;;4146998;28;20034;-79
2021/06/18 08:53:53;;;;;;;11.25;8.10;;;27.10;99.90;;;;;;4149381;28;20390;-79
2021/06/18 08:55:54;;;;;;;13.18;8.25;;;27.10;99.90;;;;;;4130845;28;20035;-78
2021/06/18 08:58:00;;;;;;;12.05;7.68;;;27.10;99.90;;;;;;4150291;28;20034;-79
2021/06/18 09:00:00;;;;;;;11.55;7.78;;;27.10;99.90;;;;;;4131989;28;20042;-79
2021/06/18 09:02:01;;;;;;;9.65;6.88;;;27.00;99.90;;;;;;4148973;28;20548;-79
2021/06/18 09:04:04;;;;;;;15.80;8.68;;;27.00;99.90;;;;;;4149771;28;20041;-79
2021/06/18 09:06:17;;;;;;;11.13;6.82;;;27.10;99.90;;;;;;4148909;28;20045;-79
2021/06/18 09:08:19;;;;;;;9.15;6.60;;;27.10;99.90;;;;;;4151885;28;20044;-79
2021/06/18 09:10:35;;;;;;;9.88;7.50;;;27.20;99.90;;;;;;4146114;28;20034;-78
2021/06/18 09:12:35;;;;;;;11.25;7.30;;;27.20;99.90;;;;;;4147622;28;20061;-79
2021/06/18 09:14:38;;;;;;;10.52;6.97;;;27.30;99.90;;;;;;4146712;28;20555;-79
2021/06/18 09:16:39;;;;;;;9.70;6.78;;;27.40;99.90;;;;;;4146888;28;20045;-79
2021/06/18 09:18:41;;;;;;;9.90;7.40;;;27.40;99.90;;;;;;4149022;28;20041;-79
2021/06/18 09:20:41;;;;;;;12.38;8.13;;;27.40;99.90;;;;;;4148103;28;20029;-79
2021/06/18 09:22:45;;;;;;;11.57;8.02;;;27.50;99.90;;;;;;4148062;28;20048;-79
2021/06/18 09:24:55;;;;;;;14.05;7.38;;;27.50;99.90;;;;;;4152961;28;20033;-79
2021/06/18 09:26:56;;;;;;;7.25;5.95;;;27.50;99.90;;;;;;4133260;28;20478;-79
2021/06/18 09:29:18;;;;;;;8.95;6.32;;;27.60;99.90;;;;;;4154993;28;20033;-79
2021/06/18 09:31:22;;;;;;;11.13;6.47;;;27.60;99.90;;;;;;4145766;28;20035;-78
2021/06/18 09:33:29;;;;;;;9.10;6.50;;;27.70;99.90;;;;;;4147653;28;20161;-78
2021/06/18 09:35:32;;;;;;;8.57;6.15;;;27.70;99.90;;;;;;4147308;28;20025;-78
2021/06/18 09:37:39;;;;;;;11.23;7.72;;;27.80;99.90;;;;;;4150234;28;20533;-79
2021/06/18 09:40:11;;;;;;;10.82;5.93;;;27.80;99.90;;;;;;4146875;28;20037;-79
2021/06/18 09:42:12;;;;;;;14.40;7.03;;;27.90;99.90;;;;;;4130014;28;20449;-78
2021/06/18 09:44:18;;;;;;;9.65;6.95;;;28.00;99.90;;;;;;4146700;28;20028;-79
2021/06/18 09:46:38;;;;;;;16.85;7.93;;;28.10;99.90;;;;;;4150070;28;20096;-78
2021/06/18 09:48:38;;;;;;;9.80;5.95;;;28.20;99.70;;;;;;4146788;28;20064;-79
2021/06/18 09:50:41;;;;;;;10.75;6.15;;;28.20;99.40;;;;;;4148590;28;20032;-78
2021/06/18 09:52:41;;;;;;;;;;;28.40;99.90;;;;;;4147253;28;20044;-79
2021/06/18 09:54:46;;;;;;;8.30;4.82;;;28.50;99.70;;;;;;4128533;28;19921;-78
2021/06/18 09:56:47;;;;;;;9.82;5.60;;;28.60;98.60;;;;;;4152344;28;20030;-79
2021/06/18 09:58:48;;;;;;;8.88;5.60;;;28.70;97.30;;;;;;4149936;28;20402;-79
2021/06/18 10:00:49;;;;;;;9.18;5.60;;;28.80;97.30;;;;;;4147590;28;20022;-79
2021/06/18 10:02:54;;;;;;;7.05;5.13;;;28.80;98.90;;;;;;4125574;28;20042;-78
2021/06/18 10:04:55;;;;;;;8.25;5.53;;;29.00;97.90;;;;;;4143845;28;20046;-78
2021/06/18 10:06:56;;;;;;;7.82;4.75;;;29.10;97.40;;;;;;4147101;28;20104;-80
2021/06/18 10:08:58;;;;;;;19.35;6.75;;;29.20;97.80;;;;;;4145596;28;20030;-79
2021/06/18 10:10:59;;;;;;;8.05;5.00;;;29.30;97.00;;;;;;4143360;28;20056;-78
2021/06/18 10:13:02;;;;;;;8.65;4.22;;;29.40;96.60;;;;;;4130010;28;20042;-79
2021/06/18 10:15:06;;;;;;;9.30;4.10;;;29.40;94.60;;;;;;4146303;28;20056;-78
2021/06/18 10:17:08;;;;;;;8.57;4.10;;;29.50;93.90;;;;;;4152842;28;21196;-79
2021/06/18 10:19:10;;;;;;;7.68;3.88;;;29.60;93.10;;;;;;4150363;28;20045;-79
2021/06/18 10:21:11;;;;;;;8.23;4.47;;;29.70;92.60;;;;;;4145499;28;20042;-79
2021/06/18 10:23:17;;;;;;;8.75;4.13;;;29.80;92.10;;;;;;4148153;28;20033;-79
2021/06/18 10:25:37;;;;;;;9.25;3.85;;;29.90;91.00;;;;;;4148608;28;20045;-79
2021/06/18 10:27:45;;;;;;;7.80;4.38;;;30.10;91.40;;;;;;4145653;28;20042;-79
2021/06/18 10:29:46;;;;;;;6.93;3.67;;;30.20;92.80;;;;;;4147361;28;20044;-78
2021/06/18 10:31:50;;;;;;;8.48;4.22;;;30.30;90.90;;;;;;4145506;28;20038;-79
2021/06/18 10:34:16;;;;;;;8.20;4.30;;;30.30;90.50;;;;;;4127465;28;20053;-79
2021/06/18 10:36:28;;;;;;;8.80;3.70;;;30.50;88.50;;;;;;4144346;28;20118;-79
2021/06/18 10:38:44;;;;;;;14.10;4.27;;;30.60;85.10;;;;;;4146815;28;20085;-79
2021/06/18 10:40:46;;;;;;;6.18;3.15;;;30.60;85.60;;;;;;4151409;28;20065;-79
2021/06/18 10:43:13;;;;;;;8.88;3.95;;;30.70;84.60;;;;;;4129365;28;20038;-78
2021/06/18 10:45:14;;;;;;;12.23;4.32;;;30.70;79.30;;;;;;4147420;28;20382;-79
2021/06/18 10:47:24;;;;;;;6.70;3.33;;;30.80;79.60;;;;;;4148116;28;20122;-79